createdAt,value
2022-12-18T00:00:09.863Z,19.59
2022-12-18T00:02:36.209Z,19.59
2022-12-18T00:05:03.000Z,19.60
2022-12-18T00:07:29.315Z,19.60
2022-12-18T00:09:55.975Z,19.55
2022-12-18T00:12:22.273Z,19.55
2022-12-18T00:14:49.511Z,19.61
2022-12-18T00:17:16.088Z,19.72
2022-12-18T00:19:42.443Z,19.71
2022-12-18T00:22:09.152Z,19.75
2022-12-18T00:24:35.491Z,19.77
2022-12-18T00:27:01.729Z,19.75
2022-12-18T00:29:28.080Z,19.72
2022-12-18T00:31:54.582Z,19.69
2022-12-18T00:34:20.996Z,19.66
2022-12-18T00:36:47.242Z,19.68
2022-12-18T00:39:13.516Z,19.70
2022-12-18T00:41:40.416Z,19.65
2022-12-18T00:44:07.413Z,19.67
2022-12-18T00:46:33.792Z,19.64
2022-12-18T00:49:00.140Z,19.68
2022-12-18T00:51:26.741Z,19.71
2022-12-18T00:53:53.218Z,19.66
2022-12-18T00:56:19.705Z,19.60
2022-12-18T01:01:19.837Z,19.53
2022-12-18T01:03:46.414Z,19.51
2022-12-18T01:06:13.114Z,19.47
2022-12-18T01:08:39.695Z,19.47
2022-12-18T01:11:06.231Z,19.47
2022-12-18T01:13:32.599Z,19.45
2022-12-18T01:15:59.196Z,19.41
2022-12-18T01:18:25.894Z,19.37
2022-12-18T01:20:52.459Z,19.33
2022-12-18T01:23:19.234Z,19.29
2022-12-18T01:25:45.591Z,19.23
2022-12-18T01:28:11.916Z,19.18
2022-12-18T01:30:38.640Z,19.11
2022-12-18T01:33:05.561Z,19.04
2022-12-18T01:35:31.841Z,18.99
2022-12-18T01:37:58.470Z,18.94
2022-12-18T01:40:25.196Z,18.89
2022-12-18T01:42:51.782Z,18.83
2022-12-18T01:45:18.050Z,18.80
2022-12-18T01:47:45.787Z,18.73
2022-12-18T01:50:13.221Z,18.67
2022-12-18T01:52:39.856Z,18.62
2022-12-18T01:55:06.175Z,18.54
2022-12-18T01:57:32.689Z,18.49
2022-12-18T01:59:58.981Z,18.45
2022-12-18T02:02:25.638Z,18.37
2022-12-18T02:04:52.413Z,18.34
2022-12-18T02:07:20.349Z,18.30
2022-12-18T02:09:47.717Z,18.25
2022-12-18T02:12:14.358Z,18.22
2022-12-18T02:14:40.784Z,18.17
2022-12-18T02:17:08.309Z,18.12
2022-12-18T02:19:34.963Z,18.08
2022-12-18T02:22:01.642Z,18.03
2022-12-18T02:24:28.803Z,17.98
2022-12-18T02:26:55.375Z,17.96
2022-12-18T02:29:22.004Z,17.92
2022-12-18T02:31:48.348Z,17.89
2022-12-18T02:34:15.199Z,17.83
2022-12-18T02:36:43.094Z,17.82
2022-12-18T02:39:09.531Z,17.80
2022-12-18T02:41:37.189Z,17.76
2022-12-18T02:44:03.892Z,17.74
2022-12-18T02:46:30.526Z,17.69
2022-12-18T02:48:56.895Z,17.67
2022-12-18T02:51:23.550Z,17.66
2022-12-18T02:53:49.855Z,17.62
2022-12-18T02:56:16.128Z,17.62
2022-12-18T02:58:42.690Z,17.57
2022-12-18T03:01:09.574Z,17.54
2022-12-18T03:03:37.674Z,17.52
2022-12-18T03:06:04.727Z,17.48
2022-12-18T03:08:31.771Z,17.44
2022-12-18T03:10:58.592Z,17.42
2022-12-18T03:13:25.014Z,17.39
2022-12-18T03:15:52.226Z,17.38
2022-12-18T03:18:19.476Z,17.36
2022-12-18T03:20:46.535Z,17.33
2022-12-18T03:23:13.019Z,17.32
2022-12-18T03:25:39.412Z,17.27
2022-12-18T03:28:06.265Z,17.25
2022-12-18T03:30:32.635Z,17.21
2022-12-18T03:33:00.587Z,17.15
2022-12-18T03:35:27.104Z,17.13
2022-12-18T03:37:53.961Z,17.12
2022-12-18T03:40:20.331Z,17.11
2022-12-18T03:42:47.178Z,17.08
2022-12-18T03:45:13.555Z,17.05
2022-12-18T03:47:40.243Z,17.02
2022-12-18T03:50:12.437Z,17.03
2022-12-18T03:52:39.425Z,16.97
2022-12-18T03:55:06.002Z,16.91
2022-12-18T03:57:32.911Z,16.88
2022-12-18T03:59:59.248Z,16.86
2022-12-18T04:02:26.156Z,16.86
2022-12-18T04:04:52.688Z,16.83
2022-12-18T04:07:19.755Z,16.82
2022-12-18T04:09:46.945Z,16.79
2022-12-18T04:12:13.735Z,16.75
2022-12-18T04:14:40.358Z,16.75
2022-12-18T04:17:06.816Z,16.73
2022-12-18T04:19:33.165Z,16.71
2022-12-18T04:21:59.697Z,16.68
2022-12-18T04:24:25.968Z,16.64
2022-12-18T04:26:52.476Z,16.62
2022-12-18T04:29:18.940Z,16.58
2022-12-18T04:31:45.777Z,16.56
2022-12-18T04:34:12.430Z,16.54
2022-12-18T04:36:38.848Z,16.54
2022-12-18T04:39:05.272Z,16.53
2022-12-18T04:41:32.082Z,16.50
2022-12-18T04:43:58.699Z,16.47
2022-12-18T04:46:25.088Z,16.47
2022-12-18T04:48:51.417Z,16.43
2022-12-18T04:51:22.005Z,16.41
2022-12-18T04:53:51.094Z,16.36
2022-12-18T04:56:17.355Z,16.34
2022-12-18T04:58:43.618Z,16.35
2022-12-18T05:01:09.888Z,16.32
2022-12-18T05:03:36.556Z,16.28
2022-12-18T05:06:03.069Z,16.28
2022-12-18T05:08:29.651Z,16.24
2022-12-18T05:10:55.956Z,16.22
2022-12-18T05:13:22.261Z,16.21
2022-12-18T05:15:48.677Z,16.19
2022-12-18T05:18:15.552Z,16.17
2022-12-18T05:20:41.825Z,16.17
2022-12-18T05:23:08.748Z,16.15
2022-12-18T05:25:35.739Z,16.12
2022-12-18T05:28:02.071Z,16.11
2022-12-18T05:30:28.688Z,16.09
2022-12-18T05:32:55.201Z,16.05
2022-12-18T05:35:21.888Z,16.04
2022-12-18T05:37:48.249Z,16.03
2022-12-18T05:40:14.589Z,15.99
2022-12-18T05:42:41.244Z,15.97
2022-12-18T05:45:07.701Z,15.97
2022-12-18T05:47:34.209Z,15.93
2022-12-18T05:50:00.564Z,15.92
2022-12-18T05:52:27.329Z,15.93
2022-12-18T05:54:54.131Z,15.90
2022-12-18T05:57:20.898Z,15.87
2022-12-18T05:59:47.601Z,15.84
2022-12-18T06:02:14.073Z,15.84
2022-12-18T06:04:41.158Z,15.80
2022-12-18T06:07:07.492Z,15.80
2022-12-18T06:09:34.108Z,15.79
2022-12-18T06:12:00.536Z,15.79
2022-12-18T06:14:27.205Z,15.75
2022-12-18T06:16:53.484Z,15.72
2022-12-18T06:19:20.660Z,15.69
2022-12-18T06:21:47.008Z,15.68
2022-12-18T06:24:13.466Z,15.67
2022-12-18T06:26:39.707Z,15.66
2022-12-18T06:29:06.542Z,15.62
2022-12-18T06:31:33.091Z,15.61
2022-12-18T06:33:59.886Z,15.60
2022-12-18T06:36:27.127Z,15.58
2022-12-18T06:38:53.483Z,15.58
2022-12-18T06:41:20.890Z,15.58
2022-12-18T06:43:48.132Z,15.53
2022-12-18T06:46:14.986Z,15.51
2022-12-18T06:48:41.665Z,15.49
2022-12-18T06:51:07.975Z,15.49
2022-12-18T06:53:34.574Z,15.48
2022-12-18T06:56:03.938Z,15.44
2022-12-18T06:58:35.266Z,15.39
2022-12-18T07:01:02.007Z,15.40
2022-12-18T07:03:28.715Z,15.40
2022-12-18T07:05:55.167Z,15.38
2022-12-18T07:08:21.584Z,15.35
2022-12-18T07:10:50.692Z,15.33
2022-12-18T07:13:20.760Z,15.30
2022-12-18T07:15:47.043Z,15.29
2022-12-18T07:18:14.199Z,15.28
2022-12-18T07:20:41.329Z,15.26
2022-12-18T07:23:08.265Z,15.25
2022-12-18T07:25:34.526Z,15.25
2022-12-18T07:28:01.182Z,15.22
2022-12-18T07:30:28.344Z,15.20
2022-12-18T07:32:55.088Z,15.17
2022-12-18T07:35:24.997Z,15.17
2022-12-18T07:37:51.875Z,15.17
2022-12-18T07:40:18.520Z,15.14
2022-12-18T07:42:44.857Z,15.16
2022-12-18T07:45:11.335Z,15.17
2022-12-18T07:47:38.185Z,15.18
2022-12-18T07:50:04.471Z,15.20
2022-12-18T07:52:31.017Z,15.25
2022-12-18T07:54:57.871Z,15.27
2022-12-18T07:57:49.450Z,15.38
2022-12-18T08:00:11.208Z,15.53
2022-12-18T08:02:38.052Z,15.61
2022-12-18T08:05:05.067Z,15.71
2022-12-18T08:07:33.323Z,15.81
2022-12-18T08:09:59.965Z,15.90
2022-12-18T08:12:26.430Z,15.97
2022-12-18T08:14:52.774Z,16.01
2022-12-18T08:17:19.040Z,16.06
2022-12-18T08:19:45.376Z,16.11
2022-12-18T08:24:40.888Z,16.11
2022-12-18T08:29:54.030Z,16.10
2022-12-18T08:32:20.560Z,16.09
2022-12-18T08:34:47.331Z,16.08
2022-12-18T08:37:14.063Z,16.06
2022-12-18T08:39:40.381Z,16.07
2022-12-18T08:42:10.323Z,16.05
2022-12-18T08:44:37.283Z,16.05
2022-12-18T08:47:03.798Z,16.04
2022-12-18T08:49:30.203Z,16.06
2022-12-18T08:51:57.410Z,16.04
2022-12-18T08:54:24.026Z,16.03
2022-12-18T08:56:50.873Z,16.04
2022-12-18T08:59:19.650Z,16.03
2022-12-18T09:01:46.951Z,16.01
2022-12-18T09:04:13.524Z,16.04
2022-12-18T09:06:39.978Z,16.02
2022-12-18T09:09:07.657Z,16.02
2022-12-18T09:11:34.019Z,16.01
2022-12-18T09:14:00.742Z,16.01
2022-12-18T09:16:32.038Z,16.02
2022-12-18T09:18:59.003Z,16.00
2022-12-18T09:21:25.884Z,16.00
2022-12-18T09:23:52.589Z,15.99
2022-12-18T09:26:19.946Z,16.01
2022-12-18T09:28:46.893Z,16.01
2022-12-18T09:31:13.568Z,15.99
2022-12-18T09:33:40.050Z,15.99
2022-12-18T09:36:06.347Z,15.98
2022-12-18T09:38:32.642Z,16.01
2022-12-18T09:40:58.960Z,16.01
2022-12-18T09:43:25.795Z,15.97
2022-12-18T09:45:52.124Z,15.98
2022-12-18T09:48:19.040Z,15.97
2022-12-18T09:50:45.536Z,15.97
2022-12-18T09:53:12.485Z,15.97
2022-12-18T09:55:39.062Z,15.98
2022-12-18T09:58:05.556Z,15.96
2022-12-18T10:00:33.321Z,15.96
2022-12-18T10:02:59.961Z,15.98
2022-12-18T10:05:26.871Z,15.96
2022-12-18T10:07:53.468Z,15.98
2022-12-18T10:10:19.882Z,15.98
2022-12-18T10:12:46.174Z,15.97
2022-12-18T10:15:12.788Z,15.99
2022-12-18T10:17:39.637Z,15.99
2022-12-18T10:20:05.998Z,15.99
2022-12-18T10:22:32.392Z,15.98
2022-12-18T10:24:58.740Z,16.00
2022-12-18T10:27:25.753Z,16.00
2022-12-18T10:29:53.534Z,16.01
2022-12-18T10:32:19.794Z,16.02
2022-12-18T10:34:46.700Z,16.04
2022-12-18T10:37:12.973Z,16.07
2022-12-18T10:39:39.498Z,16.06
2022-12-18T10:42:05.989Z,16.07
2022-12-18T10:44:32.352Z,16.11
2022-12-18T10:46:59.553Z,16.13
2022-12-18T10:49:25.912Z,16.15
2022-12-18T10:51:53.075Z,16.17
2022-12-18T10:54:19.574Z,16.13
2022-12-18T10:56:46.514Z,16.20
2022-12-18T11:01:52.725Z,16.18
2022-12-18T11:04:19.145Z,16.13
2022-12-18T11:06:45.466Z,16.14
2022-12-18T11:09:13.850Z,16.06
2022-12-18T11:11:42.647Z,16.07
2022-12-18T11:14:09.380Z,16.09
2022-12-18T11:21:50.722Z,16.16
2022-12-18T11:24:17.308Z,16.18
2022-12-18T11:26:45.787Z,16.19
2022-12-18T11:29:12.815Z,16.19
2022-12-18T11:31:39.708Z,16.26
2022-12-18T11:36:52.933Z,16.49
2022-12-18T11:39:19.461Z,16.58
2022-12-18T11:41:47.084Z,16.55
2022-12-18T11:44:13.842Z,16.57
2022-12-18T11:46:40.587Z,16.67
2022-12-18T11:49:07.435Z,16.79
2022-12-18T11:51:34.078Z,16.83
2022-12-18T11:54:00.641Z,16.91
2022-12-18T11:56:27.616Z,16.96
2022-12-18T11:58:54.164Z,17.03
2022-12-18T12:01:20.581Z,17.08
2022-12-18T12:03:47.971Z,17.00
2022-12-18T12:06:14.551Z,16.95
2022-12-18T12:08:41.072Z,17.01
2022-12-18T12:11:07.352Z,17.05
2022-12-18T12:13:33.723Z,17.07
2022-12-18T12:16:00.455Z,17.05
2022-12-18T12:18:27.566Z,17.10
2022-12-18T12:20:53.951Z,17.19
2022-12-18T12:23:24.698Z,17.26
2022-12-18T12:36:29.654Z,17.35
2022-12-18T12:38:56.008Z,17.39
2022-12-18T12:49:16.677Z,17.41
2022-12-18T12:51:44.367Z,17.43
2022-12-18T12:54:10.900Z,17.42
2022-12-18T12:56:37.662Z,17.46
2022-12-18T12:59:04.138Z,17.45
2022-12-18T13:01:30.966Z,17.44
2022-12-18T13:03:57.896Z,17.39
2022-12-18T13:06:24.221Z,17.41
2022-12-18T13:11:24.288Z,17.46
2022-12-18T13:13:52.060Z,17.38
2022-12-18T13:16:19.451Z,17.35
2022-12-18T13:18:46.079Z,17.33
2022-12-18T13:21:14.053Z,17.25
2022-12-18T13:23:41.417Z,17.19
2022-12-18T13:26:09.006Z,17.14
2022-12-18T13:28:35.450Z,17.12
2022-12-18T13:38:59.689Z,16.91
2022-12-18T13:41:26.291Z,16.86
2022-12-18T13:43:53.134Z,16.80
2022-12-18T13:48:54.710Z,16.75
2022-12-18T13:51:21.539Z,16.72
2022-12-18T13:53:48.203Z,16.72
2022-12-18T13:56:15.292Z,16.68
2022-12-18T13:58:43.327Z,16.66
2022-12-18T14:01:10.622Z,16.64
2022-12-18T14:03:37.576Z,16.61
2022-12-18T14:06:04.006Z,16.58
2022-12-18T14:08:30.286Z,16.56
2022-12-18T14:10:57.509Z,16.55
2022-12-18T14:13:24.052Z,16.53
2022-12-18T14:15:51.156Z,16.52
2022-12-18T14:18:17.936Z,16.48
2022-12-18T14:20:46.511Z,16.44
2022-12-18T14:23:17.841Z,16.42
2022-12-18T14:25:44.674Z,16.39
2022-12-18T14:28:11.659Z,16.32
2022-12-18T14:30:38.060Z,16.30
2022-12-18T14:33:05.062Z,16.30
2022-12-18T14:35:31.619Z,16.25
2022-12-18T14:37:58.532Z,16.26
2022-12-18T14:40:25.490Z,16.33
2022-12-18T14:42:52.333Z,16.42
2022-12-18T14:45:18.699Z,16.57
2022-12-18T14:47:45.415Z,16.68
2022-12-18T14:50:12.724Z,16.75
2022-12-18T14:52:40.390Z,16.86
2022-12-18T14:55:07.096Z,16.91
2022-12-18T14:57:33.504Z,16.97
2022-12-18T14:59:59.819Z,17.03
2022-12-18T15:02:26.375Z,17.12
2022-12-18T15:04:53.340Z,17.13
2022-12-18T15:07:19.761Z,17.15
2022-12-18T15:09:46.857Z,17.20
2022-12-18T15:14:54.887Z,17.27
2022-12-18T15:17:23.074Z,17.30
2022-12-18T15:19:51.483Z,17.38
2022-12-18T15:22:18.039Z,17.38
2022-12-18T15:24:45.058Z,17.38
2022-12-18T15:27:11.371Z,17.45
2022-12-18T15:29:37.681Z,17.48
2022-12-18T15:32:04.019Z,17.47
2022-12-18T15:34:30.894Z,17.48
2022-12-18T15:36:57.529Z,17.53
2022-12-18T15:39:23.770Z,17.59
2022-12-18T15:41:50.595Z,17.61
2022-12-18T15:46:50.393Z,17.51
2022-12-18T15:49:17.209Z,17.51
2022-12-18T15:51:43.573Z,17.57
2022-12-18T15:54:11.272Z,17.55
2022-12-18T15:56:37.627Z,17.50
2022-12-18T15:59:04.421Z,17.36
2022-12-18T16:01:31.271Z,17.44
2022-12-18T16:03:57.894Z,17.49
2022-12-18T16:06:24.477Z,17.53
2022-12-18T16:08:52.044Z,17.62
2022-12-18T16:11:18.715Z,17.67
2022-12-18T16:13:47.082Z,17.69
2022-12-18T16:16:13.843Z,17.79
2022-12-18T16:18:40.196Z,17.78
2022-12-18T16:21:06.908Z,17.71
2022-12-18T16:23:33.672Z,17.65
2022-12-18T16:26:00.477Z,17.67
2022-12-18T16:28:27.988Z,17.70
2022-12-18T16:30:54.731Z,17.67
2022-12-18T16:33:21.381Z,17.65
2022-12-18T16:35:48.686Z,17.61
2022-12-18T16:38:15.414Z,17.54
2022-12-18T16:40:41.729Z,17.50
2022-12-18T16:43:08.601Z,17.45
2022-12-18T16:45:34.985Z,17.38
2022-12-18T16:48:01.278Z,17.32
2022-12-18T16:50:27.827Z,17.28
2022-12-18T16:52:54.321Z,17.22
2022-12-18T16:55:21.002Z,17.18
2022-12-18T16:57:47.568Z,17.13
2022-12-18T17:00:13.863Z,17.10
2022-12-18T17:02:40.888Z,17.02
2022-12-18T17:05:07.710Z,16.97
2022-12-18T17:07:34.110Z,16.94
2022-12-18T17:10:01.681Z,16.91
2022-12-18T17:12:28.384Z,16.87
2022-12-18T17:14:55.295Z,16.84
2022-12-18T17:17:23.289Z,16.77
2022-12-18T17:19:50.521Z,16.73
2022-12-18T17:22:17.336Z,16.67
2022-12-18T17:24:43.726Z,16.63
2022-12-18T17:27:10.406Z,16.59
2022-12-18T17:29:38.272Z,16.53
2022-12-18T17:32:07.056Z,16.52
2022-12-18T17:34:33.373Z,16.52
2022-12-18T17:36:59.694Z,16.50
2022-12-18T17:39:26.211Z,16.47
2022-12-18T17:41:52.555Z,16.41
2022-12-18T17:44:19.047Z,16.33
2022-12-18T17:46:45.727Z,16.28
2022-12-18T17:49:12.081Z,16.21
2022-12-18T17:51:38.419Z,16.14
2022-12-18T17:54:04.894Z,16.12
2022-12-18T17:56:31.359Z,16.04
2022-12-18T17:58:58.062Z,16.03
2022-12-18T18:01:24.485Z,16.01
2022-12-18T18:03:53.563Z,15.97
2022-12-18T18:06:20.354Z,15.95
2022-12-18T18:08:46.620Z,15.92
2022-12-18T18:11:13.382Z,15.85
2022-12-18T18:13:44.941Z,15.81
2022-12-18T18:16:13.524Z,15.77
2022-12-18T18:18:40.175Z,15.73
2022-12-18T18:21:06.459Z,15.70
2022-12-18T18:23:33.211Z,15.68
2022-12-18T18:25:59.513Z,15.64
2022-12-18T18:28:25.895Z,15.62
2022-12-18T18:30:52.554Z,15.57
2022-12-18T18:33:19.120Z,15.56
2022-12-18T18:35:53.689Z,15.54
2022-12-18T18:38:21.090Z,15.50
2022-12-18T18:40:47.407Z,15.48
2022-12-18T18:43:13.688Z,15.46
2022-12-18T18:45:40.042Z,15.44
2022-12-18T18:48:08.416Z,15.41
2022-12-18T18:50:34.759Z,15.43
2022-12-18T18:53:01.084Z,15.38
2022-12-18T18:55:27.423Z,15.37
2022-12-18T18:57:53.860Z,15.35
2022-12-18T19:00:20.422Z,15.33
2022-12-18T19:02:47.759Z,15.30
2022-12-18T19:05:14.361Z,15.28
2022-12-18T19:07:41.185Z,15.28
2022-12-18T19:10:07.468Z,15.25
2022-12-18T19:12:34.013Z,15.24
2022-12-18T19:15:00.257Z,15.19
2022-12-18T19:17:30.642Z,15.19
2022-12-18T19:19:57.897Z,15.15
2022-12-18T19:22:24.227Z,15.12
2022-12-18T19:24:50.789Z,15.10
2022-12-18T19:27:17.057Z,15.07
2022-12-18T19:29:43.431Z,15.05
2022-12-18T19:32:09.842Z,15.04
2022-12-18T19:34:36.560Z,15.01
2022-12-18T19:37:04.104Z,14.99
2022-12-18T19:39:30.695Z,14.97
2022-12-18T19:41:57.580Z,14.95
2022-12-18T19:44:23.940Z,14.94
2022-12-18T19:46:50.448Z,14.93
2022-12-18T19:49:18.329Z,14.89
2022-12-18T19:51:46.163Z,14.86
2022-12-18T19:54:16.782Z,14.85
2022-12-18T19:56:44.027Z,14.82
2022-12-18T19:59:10.700Z,14.82
2022-12-18T20:01:37.296Z,14.80
2022-12-18T20:04:04.061Z,14.77
2022-12-18T20:06:31.435Z,14.74
2022-12-18T20:09:00.097Z,14.75
2022-12-18T20:11:27.643Z,14.73
2022-12-18T20:13:53.975Z,14.71
2022-12-18T20:16:20.368Z,14.71
2022-12-18T20:18:47.785Z,14.69
2022-12-18T20:21:14.893Z,14.66
2022-12-18T20:23:42.602Z,14.64
2022-12-18T20:26:09.536Z,14.62
2022-12-18T20:28:35.953Z,14.63
2022-12-18T20:31:04.396Z,14.59
2022-12-18T20:33:31.330Z,14.57
2022-12-18T20:35:57.701Z,14.58
2022-12-18T20:38:24.080Z,14.56
2022-12-18T20:40:51.808Z,14.55
2022-12-18T20:43:18.225Z,14.53
2022-12-18T20:45:44.735Z,14.52
2022-12-18T20:48:13.411Z,14.49
2022-12-18T20:50:40.109Z,14.48
2022-12-18T20:53:06.936Z,14.47
2022-12-18T20:55:33.271Z,14.44
2022-12-18T20:57:59.605Z,14.43
2022-12-18T21:00:26.107Z,14.43
2022-12-18T21:02:52.818Z,14.41
2022-12-18T21:05:19.568Z,14.41
2022-12-18T21:07:45.943Z,14.38
2022-12-18T21:10:12.482Z,14.35
2022-12-18T21:12:45.261Z,14.35
2022-12-18T21:15:28.502Z,14.32
2022-12-18T21:17:55.285Z,14.32
2022-12-18T21:20:21.994Z,14.29
2022-12-18T21:22:48.540Z,14.28
2022-12-18T21:25:14.908Z,14.28
2022-12-18T21:27:41.179Z,14.26
2022-12-18T21:30:07.436Z,14.24
2022-12-18T21:32:33.824Z,14.25
2022-12-18T21:35:00.512Z,14.21
2022-12-18T21:37:27.092Z,14.21
2022-12-18T21:39:53.727Z,14.21
2022-12-18T21:42:20.313Z,14.18
2022-12-18T21:44:47.320Z,14.18
2022-12-18T21:47:21.285Z,14.15
2022-12-18T21:49:48.975Z,14.16
2022-12-18T21:52:15.287Z,14.14
2022-12-18T21:54:41.616Z,14.10
2022-12-18T21:57:07.999Z,14.09
2022-12-18T21:59:34.453Z,14.09
2022-12-18T22:02:00.847Z,14.09
2022-12-18T22:04:27.244Z,14.07
2022-12-18T22:06:54.212Z,14.06
2022-12-18T22:09:20.849Z,14.05
2022-12-18T22:11:47.288Z,14.03
2022-12-18T22:14:13.619Z,14.04
2022-12-18T22:16:39.970Z,14.02
2022-12-18T22:19:07.684Z,14.00
2022-12-18T22:21:34.026Z,13.99
2022-12-18T22:24:00.376Z,13.99
2022-12-18T22:26:26.745Z,13.99
2022-12-18T22:28:53.265Z,14.00
2022-12-18T22:31:19.931Z,13.98
2022-12-18T22:33:46.708Z,13.95
2022-12-18T22:36:13.401Z,13.93
2022-12-18T22:38:42.660Z,13.94
2022-12-18T22:41:09.602Z,13.92
2022-12-18T22:43:36.523Z,13.91
2022-12-18T22:46:03.124Z,13.87
2022-12-18T22:48:30.076Z,13.88
2022-12-18T22:50:59.376Z,13.87
2022-12-18T22:53:26.079Z,13.86
2022-12-18T22:55:52.866Z,13.84
2022-12-18T22:58:19.759Z,13.86
2022-12-18T23:00:46.019Z,13.83
2022-12-18T23:03:12.759Z,13.84
2022-12-18T23:05:39.557Z,13.82
2022-12-18T23:08:06.505Z,13.82
2022-12-18T23:10:33.138Z,13.81
2022-12-18T23:12:59.663Z,13.81
2022-12-18T23:15:28.533Z,13.80
2022-12-18T23:17:55.028Z,13.82
2022-12-18T23:20:21.389Z,13.81
2022-12-18T23:22:47.961Z,13.77
2022-12-18T23:25:14.223Z,13.76
2022-12-18T23:27:40.548Z,13.75
2022-12-18T23:30:07.857Z,13.76
2022-12-18T23:32:34.477Z,13.75
2022-12-18T23:35:02.216Z,13.73
2022-12-18T23:37:56.889Z,13.73
2022-12-18T23:40:15.096Z,13.72
2022-12-18T23:42:41.439Z,13.70
2022-12-18T23:45:17.614Z,13.70
2022-12-18T23:47:44.834Z,13.68
2022-12-18T23:50:13.554Z,13.67
2022-12-18T23:52:40.159Z,13.66
2022-12-18T23:55:06.559Z,13.64
2022-12-18T23:57:33.055Z,13.61
2022-12-18T23:59:59.932Z,13.61
